Accueil
METAR-TAF:

METAR-TAF

Aéroports :

Aéroport de Sion

Sion, Suisse

latitude: 46-13N, longitude: 007-20E, altitude: 482 m

Observation

Le bulletin a été fait il y a 41 minutes, à 15:50 UTC
Vent 2 kt de est/sud-est
Température 7°C
Humidité 53%
Pression 1013 hPa
Visibilité 10 km ou plus
Nuages épars à une hauteur de 7000 ft
Ciel couvert à une hauteur de 10000 ft

METAR: LSGS 271550Z 11002KT 9999 SCT070 OVC100 07/M02 Q1013

Heure: 17:31 (16:31 UTC)

Prévision

Le bulletin a été fait il y a 2 heures et 6 minutes, à 14:25 UTC
Prévision valable du 27 à 15 UTC au 27 à 24 UTC
Vent 5 kt de est
Visibilité 10 km ou plus
Quelques nuages à une hauteur de 6000 ft
Nuages fragmentés à une hauteur de 11000 ft
Evoluant progressivement
du 27 à 20 UTC au 27 à 22 UTC
Quelques nuages à une hauteur de 2000 ft
Ciel couvert à une hauteur de 6000 ft

TAF: LSGS 271425Z 2715/2724 08005KT 9999 FEW060 BKN110 BECMG 2720/2722 FEW020 OVC060

Observations et prévisions météorologiques de plus de 4000 aéroports (messages METAR et TAF).

Les stations disponibles sont représentées par des disques jaunes et rouges sur la carte.

Passer la souris dessus pour voir le nom de la station.

Cliquer dessus pour voir les observations et prévisions météorologiques.

Pour changer de carte: cliquez sur les boutons verts avec une croix noire pour zoomer, sur le bouton vert avec un tiret pour effectuer un zoom arrière, ou sur les flèches vertes pour les cartes adjacentes.


METAR-TAF: